Time;durP1;ratioP1;P1;durP2;ratioP2;P2;SDS_P1;SDS_P2;PMS_P1;PMS_P2;Temp;Humidity;BMP_temperature;BMP_pressure;BME280_temperature;BME280_humidity;BME280_pressure;Samples;Min_cycle;Max_cycle;Signal;HPM_P1;HPM_P2
2023/03/02 00:00:45;;;;;;;28.13;14.93;;;;;;;;;;5087421;28;20531;-68
2023/03/02 00:03:13;;;;;;;25.48;14.38;;;;;;;;;;5086784;28;20040;-67
2023/03/02 00:05:40;;;;;;;32.38;16.08;;;;;;;;;;5085110;28;20066;-65
2023/03/02 00:08:08;;;;;;;32.10;16.02;;;;;;;;;;5084922;28;20038;-66
2023/03/02 00:10:35;;;;;;;30.98;14.93;;;;;;;;;;5078633;28;20543;-66
2023/03/02 00:13:02;;;;;;;27.42;14.93;;;;;;;;;;5079260;28;20035;-66
2023/03/02 00:15:28;;;;;;;31.20;15.40;;;;;;;;;;5076071;28;20042;-66
2023/03/02 00:17:53;;;;;;;28.58;15.52;;;;;;;;;;5074634;28;20032;-67
2023/03/02 00:20:19;;;;;;;27.67;16.55;;;;;;;;;;5084872;28;20055;-67
2023/03/02 00:22:45;;;;;;;25.60;15.20;;;;;;;;;;5080540;28;20526;-67
2023/03/02 00:25:13;;;;;;;28.48;14.13;;;;;;;;;;5084295;28;20039;-67
2023/03/02 00:27:39;;;;;;;27.45;15.30;;;;;;;;;;5079685;28;20040;-67
2023/03/02 00:30:06;;;;;;;26.23;15.20;;;;;;;;;;5081023;28;20507;-67
2023/03/02 00:32:33;;;;;;;29.55;16.50;;;;;;;;;;5077651;28;20028;-67
2023/03/02 00:34:58;;;;;;;29.25;15.68;;;;;;;;;;5078782;28;20045;-65
2023/03/02 00:37:27;;;;;;;27.80;15.80;;;;;;;;;;5063825;28;20861;-66
2023/03/02 00:39:53;;;;;;;27.80;15.15;;;;;;;;;;5064673;28;20067;-66
2023/03/02 00:42:19;;;;;;;28.25;15.10;;;;;;;;;;5059892;28;20035;-67
2023/03/02 00:44:45;;;;;;;29.80;16.30;;;;;;;;;;5082484;28;20055;-67
2023/03/02 00:47:11;;;;;;;27.40;15.07;;;;;;;;;;5083314;28;20044;-66
2023/03/02 00:49:36;;;;;;;31.23;15.40;;;;;;;;;;5082442;28;20023;-67
2023/03/02 00:52:03;;;;;;;28.20;14.98;;;;;;;;;;5065345;28;20040;-66
2023/03/02 00:54:28;;;;;;;26.33;14.60;;;;;;;;;;5079612;28;20020;-67
2023/03/02 00:56:54;;;;;;;30.35;16.45;;;;;;;;;;5081787;28;20059;-67
2023/03/02 00:59:26;;;;;;;29.77;16.10;;;;;;;;;;5071451;28;20407;-67
2023/03/02 01:02:20;;;;;;;26.75;14.52;;;;;;;;;;5056003;28;20051;-67
2023/03/02 01:04:47;;;;;;;28.73;16.23;;;;;;;;;;5065005;28;20028;-67
2023/03/02 01:07:16;;;;;;;31.30;15.65;;;;;;;;;;5087068;28;20605;-67
2023/03/02 01:09:43;;;;;;;27.25;15.32;;;;;;;;;;5082354;28;20044;-67
2023/03/02 01:12:10;;;;;;;32.08;16.23;;;;;;;;;;5083270;28;20039;-67
2023/03/02 01:14:38;;;;;;;28.02;14.57;;;;;;;;;;5082200;28;20088;-67
2023/03/02 01:17:05;;;;;;;30.90;15.30;;;;;;;;;;5068606;28;20511;-66
2023/03/02 01:19:31;;;;;;;28.75;15.27;;;;;;;;;;5065808;28;20039;-66
2023/03/02 01:21:57;;;;;;;28.05;15.80;;;;;;;;;;5079067;28;20028;-67
2023/03/02 01:24:23;;;;;;;30.27;17.20;;;;;;;;;;5066753;28;20046;-67
2023/03/02 01:26:48;;;;;;;28.92;15.88;;;;;;;;;;5081818;28;20036;-68
2023/03/02 01:29:14;;;;;;;31.88;15.57;;;;;;;;;;5068186;28;20348;-67
2023/03/02 01:31:39;;;;;;;31.50;15.85;;;;;;;;;;5083771;28;20024;-67
2023/03/02 01:34:05;;;;;;;31.67;16.35;;;;;;;;;;5066225;28;20040;-67
2023/03/02 01:36:31;;;;;;;28.58;15.43;;;;;;;;;;5076659;28;20036;-67
2023/03/02 01:38:56;;;;;;;27.95;14.77;;;;;;;;;;5079106;28;20024;-68
2023/03/02 01:41:22;;;;;;;28.30;15.30;;;;;;;;;;5084776;28;20028;-66
2023/03/02 01:43:47;;;;;;;29.40;16.27;;;;;;;;;;5068450;28;20111;-66
2023/03/02 01:46:16;;;;;;;27.98;15.07;;;;;;;;;;5087494;28;20050;-66
2023/03/02 01:49:10;;;;;;;30.05;15.98;;;;;;;;;;5064869;28;20028;-66
2023/03/02 01:51:51;;;;;;;25.25;14.00;;;;;;;;;;5067612;28;20032;-66
2023/03/02 01:54:21;;;;;;;32.80;17.13;;;;;;;;;;5065412;28;20082;-68
2023/03/02 01:56:54;;;;;;;32.67;14.82;;;;;;;;;;5084908;28;20036;-68
2023/03/02 01:59:21;;;;;;;28.52;15.18;;;;;;;;;;5080803;28;20079;-67
2023/03/02 02:01:55;;;;;;;35.88;19.73;;;;;;;;;;5062580;28;20035;-65
2023/03/02 02:04:22;;;;;;;35.67;16.98;;;;;;;;;;5083125;28;20027;-68
2023/03/02 02:07:03;;;;;;;31.23;15.98;;;;;;;;;;5078877;28;20036;-68
2023/03/02 02:09:32;;;;;;;32.92;16.20;;;;;;;;;;5085837;28;20043;-66
2023/03/02 02:11:58;;;;;;;31.98;16.63;;;;;;;;;;5068410;28;20070;-66
2023/03/02 02:14:24;;;;;;;31.05;16.70;;;;;;;;;;5066846;28;20071;-68
2023/03/02 02:16:51;;;;;;;32.10;16.30;;;;;;;;;;5068534;28;20067;-67
2023/03/02 02:19:38;;;;;;;35.22;17.60;;;;;;;;;;5062889;28;20390;-67
2023/03/02 02:22:04;;;;;;;27.40;15.20;;;;;;;;;;5081692;28;20541;-67
2023/03/02 02:24:42;;;;;;;28.17;14.95;;;;;;;;;;5070614;28;20036;-67
2023/03/02 02:27:09;;;;;;;32.55;15.60;;;;;;;;;;5080842;28;20506;-67
2023/03/02 02:29:44;;;;;;;33.83;17.58;;;;;;;;;;5079243;28;20037;-67
2023/03/02 02:32:13;;;;;;;24.88;15.07;;;;;;;;;;5062575;28;20040;-65
2023/03/02 02:34:50;;;;;;;32.70;16.77;;;;;;;;;;5084971;28;20043;-68
2023/03/02 02:37:25;;;;;;;33.55;15.48;;;;;;;;;;5065016;28;20294;-68
2023/03/02 02:39:51;;;;;;;31.13;15.98;;;;;;;;;;5087739;28;20035;-67
2023/03/02 02:42:26;;;;;;;30.98;15.55;;;;;;;;;;5085720;28;20499;-67
2023/03/02 02:44:57;;;;;;;30.65;15.40;;;;;;;;;;5066416;28;20039;-67
2023/03/02 02:47:23;;;;;;;29.60;15.18;;;;;;;;;;5070096;28;20531;-67
2023/03/02 02:49:52;;;;;;;34.10;15.85;;;;;;;;;;5070045;28;20234;-66
2023/03/02 02:52:21;;;;;;;33.20;15.85;;;;;;;;;;5070079;28;20225;-67
2023/03/02 02:54:50;;;;;;;19.37;10.93;;;;;;;;;;5067213;28;20035;-68
2023/03/02 02:57:18;;;;;;;33.70;16.45;;;;;;;;;;5070754;28;20028;-67
2023/03/02 02:59:47;;;;;;;34.40;16.70;;;;;;;;;;5070309;28;20059;-66
2023/03/02 03:02:23;;;;;;;23.45;13.55;;;;;;;;;;5071493;28;20524;-65
2023/03/02 03:04:48;;;;;;;31.42;15.52;;;;;;;;;;5065412;28;20035;-65
2023/03/02 03:07:22;;;;;;;31.92;16.50;;;;;;;;;;5063081;28;20408;-65
2023/03/02 03:09:56;;;;;;;35.00;16.75;;;;;;;;;;5083715;28;20471;-65
2023/03/02 03:12:24;;;;;;;34.80;15.77;;;;;;;;;;5083827;28;20040;-66
2023/03/02 03:14:52;;;;;;;31.75;15.18;;;;;;;;;;5068654;28;20051;-65
2023/03/02 03:17:17;;;;;;;34.70;17.05;;;;;;;;;;5086765;28;20397;-67
2023/03/02 03:19:50;;;;;;;31.10;15.70;;;;;;;;;;5066169;28;20507;-65
2023/03/02 03:22:16;;;;;;;42.35;17.98;;;;;;;;;;5072146;28;20032;-66
2023/03/02 03:24:44;;;;;;;31.38;15.70;;;;;;;;;;5066836;28;20031;-66
2023/03/02 03:27:14;;;;;;;34.20;15.95;;;;;;;;;;5068306;28;20046;-65
2023/03/02 03:29:41;;;;;;;;;;;;;;;;;;5064121;28;20042;-66
2023/03/02 03:32:08;;;;;;;32.40;15.95;;;;;;;;;;5074486;28;20271;-66
2023/03/02 03:34:39;;;;;;;26.60;14.25;;;;;;;;;;5067404;28;20478;-65
2023/03/02 03:37:12;;;;;;;21.75;11.52;;;;;;;;;;5060913;28;20488;-65
2023/03/02 03:39:39;;;;;;;29.13;15.95;;;;;;;;;;5071097;28;20047;-67
2023/03/02 03:42:05;;;;;;;30.08;15.95;;;;;;;;;;5066507;28;20050;-68
2023/03/02 03:44:31;;;;;;;33.88;16.48;;;;;;;;;;5071711;28;20047;-67
2023/03/02 03:46:57;;;;;;;30.02;14.18;;;;;;;;;;5067266;28;20039;-67
2023/03/02 03:49:23;;;;;;;34.88;17.05;;;;;;;;;;5088197;28;20036;-67
2023/03/02 03:51:49;;;;;;;35.60;16.58;;;;;;;;;;5070653;28;20044;-67
2023/03/02 03:54:15;;;;;;;26.55;14.98;;;;;;;;;;5076471;28;20059;-66
2023/03/02 03:56:45;;;;;;;35.70;16.55;;;;;;;;;;5086967;28;20040;-64
2023/03/02 03:59:18;;;;;;;28.00;13.43;;;;;;;;;;5085944;28;20130;-67
2023/03/02 04:01:56;;;;;;;31.75;15.52;;;;;;;;;;5072606;28;20020;-67
2023/03/02 04:04:31;;;;;;;29.30;15.70;;;;;;;;;;5073632;28;20028;-67
2023/03/02 04:06:57;;;;;;;32.60;18.13;;;;;;;;;;5061731;28;20103;-67
2023/03/02 04:09:24;;;;;;;31.00;14.70;;;;;;;;;;5087876;28;20080;-68
2023/03/02 04:11:53;;;;;;;28.17;15.63;;;;;;;;;;5069338;28;20037;-66
2023/03/02 04:14:21;;;;;;;34.83;18.10;;;;;;;;;;5069419;28;20376;-65
2023/03/02 04:16:48;;;;;;;35.53;15.82;;;;;;;;;;5072526;28;20029;-65
2023/03/02 04:19:16;;;;;;;31.50;15.40;;;;;;;;;;5065945;28;20063;-68
2023/03/02 04:21:45;;;;;;;33.85;18.50;;;;;;;;;;5069763;28;20047;-65
2023/03/02 04:24:13;;;;;;;33.10;14.98;;;;;;;;;;5066618;28;20040;-68
2023/03/02 04:26:40;;;;;;;31.33;16.00;;;;;;;;;;5084833;28;20499;-65
2023/03/02 04:29:07;;;;;;;37.08;17.67;;;;;;;;;;5066155;28;20439;-68
2023/03/02 04:31:35;;;;;;;33.65;16.02;;;;;;;;;;5085374;28;20155;-65
2023/03/02 04:34:02;;;;;;;40.75;18.13;;;;;;;;;;5068148;28;20571;-65
2023/03/02 04:36:29;;;;;;;29.50;15.05;;;;;;;;;;5070912;28;20399;-66
2023/03/02 04:38:55;;;;;;;37.05;18.45;;;;;;;;;;5087735;28;20031;-66
2023/03/02 04:41:21;;;;;;;35.33;18.52;;;;;;;;;;5085365;28;20040;-66
2023/03/02 04:43:47;;;;;;;37.08;17.77;;;;;;;;;;5083389;28;20506;-66
2023/03/02 04:46:14;;;;;;;36.40;16.60;;;;;;;;;;5080316;28;20036;-68
2023/03/02 04:48:40;;;;;;;35.70;16.58;;;;;;;;;;5081632;28;20044;-67
2023/03/02 04:51:06;;;;;;;32.67;15.75;;;;;;;;;;5079515;28;20041;-65
2023/03/02 04:53:31;;;;;;;25.20;14.63;;;;;;;;;;5083826;28;20055;-67
2023/03/02 04:55:57;;;;;;;36.20;17.15;;;;;;;;;;5085127;28;20051;-65
2023/03/02 04:58:22;;;;;;;40.83;18.15;;;;;;;;;;5083986;28;20044;-67
2023/03/02 05:00:48;;;;;;;36.97;17.20;;;;;;;;;;5078464;28;20062;-67
2023/03/02 05:03:13;;;;;;;33.70;16.65;;;;;;;;;;5085529;28;20082;-67
2023/03/02 05:05:39;;;;;;;44.00;18.30;;;;;;;;;;5084858;28;20079;-67
2023/03/02 05:08:05;;;;;;;31.90;15.57;;;;;;;;;;5086928;28;20075;-66
2023/03/02 05:10:30;;;;;;;30.17;16.35;;;;;;;;;;5081107;28;20024;-67
2023/03/02 05:13:03;;;;;;;33.53;16.70;;;;;;;;;;5081471;28;20028;-67
2023/03/02 05:15:36;;;;;;;38.00;17.00;;;;;;;;;;5087273;28;20032;-67
2023/03/02 05:18:05;;;;;;;28.35;15.38;;;;;;;;;;5082231;28;20044;-66
2023/03/02 05:20:31;;;;;;;32.58;15.82;;;;;;;;;;5078489;28;20027;-67
2023/03/02 05:23:00;;;;;;;29.40;16.00;;;;;;;;;;5086243;28;20039;-66
2023/03/02 05:25:27;;;;;;;34.35;17.75;;;;;;;;;;5085351;28;20123;-66
2023/03/02 05:27:53;;;;;;;35.88;17.90;;;;;;;;;;5074350;28;20040;-67
2023/03/02 05:30:19;;;;;;;31.95;16.33;;;;;;;;;;5066092;28;20494;-67
2023/03/02 05:32:45;;;;;;;33.85;16.23;;;;;;;;;;5086584;28;20047;-66
2023/03/02 05:35:12;;;;;;;36.40;18.25;;;;;;;;;;5086216;28;20040;-66
2023/03/02 05:37:41;;;;;;;29.90;16.73;;;;;;;;;;5086521;28;20036;-66
2023/03/02 05:40:08;;;;;;;;;;;;;;;;;;5083430;28;20081;-67
2023/03/02 05:42:34;;;;;;;37.28;17.65;;;;;;;;;;5086139;28;19916;-67
2023/03/02 05:45:04;;;;;;;33.47;17.80;;;;;;;;;;5078395;28;20028;-67
2023/03/02 05:47:30;;;;;;;35.30;16.63;;;;;;;;;;5086261;28;20165;-67
2023/03/02 05:49:55;;;;;;;35.28;17.13;;;;;;;;;;5084260;28;20107;-67
2023/03/02 05:52:21;;;;;;;37.08;17.55;;;;;;;;;;5079708;28;20033;-66
2023/03/02 05:54:46;;;;;;;33.28;16.65;;;;;;;;;;5085479;28;20050;-66
2023/03/02 05:57:12;;;;;;;32.72;17.10;;;;;;;;;;5083327;28;20521;-66
2023/03/02 05:59:38;;;;;;;35.05;16.63;;;;;;;;;;5078966;28;20410;-67
2023/03/02 06:02:03;;;;;;;29.92;15.65;;;;;;;;;;5080744;28;20376;-65
2023/03/02 06:04:29;;;;;;;29.88;15.07;;;;;;;;;;5080567;28;20079;-65
2023/03/02 06:06:54;;;;;;;28.92;14.75;;;;;;;;;;5081724;28;20555;-66
2023/03/02 06:09:21;;;;;;;37.17;16.67;;;;;;;;;;5063255;28;20039;-66
2023/03/02 06:11:47;;;;;;;29.85;16.48;;;;;;;;;;5091593;28;20525;-66
2023/03/02 06:14:12;;;;;;;31.42;15.73;;;;;;;;;;5092103;28;20062;-66
2023/03/02 06:16:38;;;;;;;34.28;16.17;;;;;;;;;;5088076;28;20189;-67
2023/03/02 06:19:04;;;;;;;32.42;17.02;;;;;;;;;;5093684;28;20042;-67
2023/03/02 06:21:29;;;;;;;40.30;16.80;;;;;;;;;;5089007;28;20495;-65
2023/03/02 06:23:55;;;;;;;31.13;16.45;;;;;;;;;;5088132;28;20135;-65
2023/03/02 06:26:21;;;;;;;26.88;14.85;;;;;;;;;;5090949;28;20035;-66
2023/03/02 06:28:46;;;;;;;31.30;15.75;;;;;;;;;;5087130;28;20071;-65
2023/03/02 06:31:12;;;;;;;38.92;19.52;;;;;;;;;;5090140;28;20052;-66
2023/03/02 06:33:37;;;;;;;33.55;17.48;;;;;;;;;;5088323;28;20031;-66
2023/03/02 06:36:03;;;;;;;34.60;15.23;;;;;;;;;;5091899;28;20081;-67
2023/03/02 06:38:29;;;;;;;32.38;16.90;;;;;;;;;;5093158;28;20031;-67
2023/03/02 06:40:54;;;;;;;33.97;16.25;;;;;;;;;;5087154;28;20035;-66
2023/03/02 06:43:20;;;;;;;32.63;16.52;;;;;;;;;;5091662;28;20044;-67
2023/03/02 06:45:45;;;;;;;32.65;17.05;;;;;;;;;;5093108;28;20515;-68
2023/03/02 06:48:11;;;;;;;30.20;16.23;;;;;;;;;;5084631;28;20051;-66
2023/03/02 06:50:37;;;;;;;31.13;15.38;;;;;;;;;;5086117;28;20441;-67
2023/03/02 06:53:03;;;;;;;34.45;16.65;;;;;;;;;;5085309;28;20468;-66
2023/03/02 06:55:29;;;;;;;30.15;16.67;;;;;;;;;;5088479;28;20032;-66
2023/03/02 06:57:54;;;;;;;27.95;15.23;;;;;;;;;;5083655;28;20507;-66
2023/03/02 07:00:24;;;;;;;31.90;16.70;;;;;;;;;;5088118;28;20032;-67
2023/03/02 07:02:51;;;;;;;30.35;16.48;;;;;;;;;;5091814;28;20058;-67
2023/03/02 07:05:18;;;;;;;29.95;15.50;;;;;;;;;;5088714;28;20746;-68
2023/03/02 07:07:44;;;;;;;30.05;16.80;;;;;;;;;;5082273;28;20040;-67
2023/03/02 07:10:13;;;;;;;29.90;15.27;;;;;;;;;;5080009;28;20066;-67
2023/03/02 07:12:40;;;;;;;;;;;;;;;;;;5086187;28;20036;-67
2023/03/02 07:15:13;;;;;;;29.38;14.52;;;;;;;;;;5085755;28;19966;-67
2023/03/02 07:17:40;;;;;;;35.47;17.38;;;;;;;;;;5085136;28;20317;-66
2023/03/02 07:20:06;;;;;;;29.98;16.08;;;;;;;;;;5084285;28;20663;-67
2023/03/02 07:22:32;;;;;;;28.23;14.90;;;;;;;;;;5084673;28;20093;-66
2023/03/02 07:24:58;;;;;;;25.85;14.88;;;;;;;;;;5082086;28;20037;-67
2023/03/02 07:27:23;;;;;;;31.55;16.38;;;;;;;;;;5090078;28;20052;-66
2023/03/02 07:29:49;;;;;;;28.65;14.32;;;;;;;;;;5087249;28;20394;-67
2023/03/02 07:32:15;;;;;;;31.83;16.75;;;;;;;;;;5088214;28;20097;-68
2023/03/02 07:34:40;;;;;;;39.30;17.05;;;;;;;;;;5081263;28;20047;-68
2023/03/02 07:37:06;;;;;;;34.35;15.82;;;;;;;;;;5081333;28;20032;-67
2023/03/02 07:39:31;;;;;;;33.00;15.70;;;;;;;;;;5079817;28;20032;-67
2023/03/02 07:41:59;;;;;;;31.77;15.35;;;;;;;;;;5076558;28;20024;-67
2023/03/02 07:44:26;;;;;;;33.20;16.10;;;;;;;;;;5063932;28;20561;-68
2023/03/02 07:46:52;;;;;;;30.83;15.90;;;;;;;;;;5081875;28;20042;-67
2023/03/02 07:49:18;;;;;;;31.80;16.05;;;;;;;;;;5078958;28;20032;-67
2023/03/02 07:51:43;;;;;;;27.65;14.55;;;;;;;;;;5084438;28;20495;-67
2023/03/02 07:54:09;;;;;;;26.48;14.93;;;;;;;;;;5084738;28;20024;-66
2023/03/02 07:56:35;;;;;;;29.83;16.42;;;;;;;;;;5083343;28;20160;-68
2023/03/02 07:59:00;;;;;;;29.40;16.00;;;;;;;;;;5081749;28;20081;-68
2023/03/02 08:01:26;;;;;;;31.90;15.95;;;;;;;;;;5087551;28;20028;-68
2023/03/02 08:03:52;;;;;;;27.83;15.05;;;;;;;;;;5078976;28;20373;-68
2023/03/02 08:06:17;;;;;;;27.05;14.77;;;;;;;;;;5084764;28;20028;-67
2023/03/02 08:08:43;;;;;;;32.00;16.45;;;;;;;;;;5083639;28;20036;-67
2023/03/02 08:11:12;;;;;;;33.00;16.90;;;;;;;;;;5086586;28;20088;-67
2023/03/02 08:13:38;;;;;;;32.95;16.48;;;;;;;;;;5081133;28;20376;-68
2023/03/02 08:16:06;;;;;;;27.83;14.50;;;;;;;;;;5085896;28;20467;-68
2023/03/02 08:18:32;;;;;;;35.42;16.05;;;;;;;;;;5081516;28;20047;-66
2023/03/02 08:20:58;;;;;;;28.17;16.00;;;;;;;;;;5086350;28;20035;-66
2023/03/02 08:23:25;;;;;;;30.35;15.88;;;;;;;;;;5085064;28;20060;-68
2023/03/02 08:25:52;;;;;;;29.73;15.70;;;;;;;;;;5082458;28;20027;-68
2023/03/02 08:28:19;;;;;;;31.65;16.48;;;;;;;;;;5078671;28;20572;-67
2023/03/02 08:30:53;;;;;;;35.53;15.65;;;;;;;;;;5086197;28;20077;-67
2023/03/02 08:33:18;;;;;;;30.38;16.30;;;;;;;;;;5098796;28;20032;-66
2023/03/02 08:35:53;;;;;;;29.92;15.60;;;;;;;;;;5098981;28;20047;-67
2023/03/02 08:38:19;;;;;;;31.48;16.88;;;;;;;;;;5097767;28;20023;-68
2023/03/02 08:40:44;;;;;;;36.47;16.88;;;;;;;;;;5082260;28;20427;-67
2023/03/02 08:43:10;;;;;;;29.60;14.10;;;;;;;;;;5072662;28;20032;-66
2023/03/02 08:45:36;;;;;;;27.80;15.40;;;;;;;;;;5074125;28;20032;-67
2023/03/02 08:48:02;;;;;;;29.02;16.25;;;;;;;;;;5067318;28;20038;-67
2023/03/02 08:50:27;;;;;;;30.90;16.05;;;;;;;;;;5077420;28;20040;-66
2023/03/02 08:52:53;;;;;;;32.47;16.25;;;;;;;;;;5075981;28;20090;-66
2023/03/02 08:55:18;;;;;;;31.83;17.10;;;;;;;;;;5056371;28;20033;-66
2023/03/02 08:57:44;;;;;;;27.10;15.27;;;;;;;;;;5069955;28;20067;-66
2023/03/02 09:00:13;;;;;;;29.77;15.57;;;;;;;;;;5087100;28;20528;-66
2023/03/02 09:02:39;;;;;;;;;;;;;;;;;;5076304;28;20055;-67
2023/03/02 09:05:05;;;;;;;27.70;16.42;;;;;;;;;;5078112;28;19911;-66
2023/03/02 09:07:30;;;;;;;24.75;14.95;;;;;;;;;;5081796;28;20886;-66
2023/03/02 09:09:56;;;;;;;23.10;14.48;;;;;;;;;;5083293;28;20036;-67
2023/03/02 09:12:21;;;;;;;23.98;15.23;;;;;;;;;;5078837;28;20873;-67
2023/03/02 09:14:47;;;;;;;29.92;16.75;;;;;;;;;;5084958;28;20548;-67
2023/03/02 09:17:14;;;;;;;38.40;17.42;;;;;;;;;;5079896;28;20035;-67
2023/03/02 09:19:41;;;;;;;38.20;18.92;;;;;;;;;;5083073;28;20044;-67
2023/03/02 09:22:07;;;;;;;29.92;17.30;;;;;;;;;;5078325;28;20044;-68
2023/03/02 09:24:34;;;;;;;28.20;16.42;;;;;;;;;;5082679;28;20032;-67
2023/03/02 09:27:01;;;;;;;30.20;17.38;;;;;;;;;;5077052;28;20027;-67
2023/03/02 09:29:26;;;;;;;30.30;17.02;;;;;;;;;;5080719;28;20024;-66
2023/03/02 09:31:52;;;;;;;26.80;16.98;;;;;;;;;;5080867;28;20087;-66
2023/03/02 09:34:18;;;;;;;31.23;17.05;;;;;;;;;;5081662;28;20395;-67
2023/03/02 09:36:44;;;;;;;31.83;18.65;;;;;;;;;;5082461;28;20068;-67
2023/03/02 09:39:11;;;;;;;29.50;17.60;;;;;;;;;;5080792;28;20032;-67
2023/03/02 09:42:14;;;;;;;37.00;19.70;;;;;;;;;;5083941;28;20516;-67
2023/03/02 09:44:52;;;;;;;32.08;17.15;;;;;;;;;;5076977;28;20255;-67
2023/03/02 09:47:28;;;;;;;32.83;18.42;;;;;;;;;;5079049;28;20054;-66
2023/03/02 09:50:11;;;;;;;34.25;18.83;;;;;;;;;;5074494;28;20050;-67
2023/03/02 09:52:47;;;;;;;30.90;19.83;;;;;;;;;;5082390;28;20059;-67
2023/03/02 09:55:24;;;;;;;28.98;17.83;;;;;;;;;;5083955;28;20031;-67
2023/03/02 09:57:50;;;;;;;24.38;17.35;;;;;;;;;;5085529;28;20032;-67
2023/03/02 10:00:35;;;;;;;26.65;17.02;;;;;;;;;;5083092;28;20036;-67
2023/03/02 10:03:08;;;;;;;25.75;17.50;;;;;;;;;;5078714;28;20028;-67
2023/03/02 10:05:42;;;;;;;26.33;17.90;;;;;;;;;;5084465;28;20503;-66
2023/03/02 10:08:19;;;;;;;29.52;17.15;;;;;;;;;;5083335;28;20029;-67
2023/03/02 10:11:04;;;;;;;25.60;16.75;;;;;;;;;;5080070;28;20043;-67
2023/03/02 10:13:45;;;;;;;25.05;16.35;;;;;;;;;;5078849;28;20034;-68
2023/03/02 10:16:44;;;;;;;30.27;17.70;;;;;;;;;;5076638;28;20040;-68
2023/03/02 10:19:40;;;;;;;29.65;17.02;;;;;;;;;;5084106;28;20455;-68
2023/03/02 10:22:24;;;;;;;28.77;16.88;;;;;;;;;;5063423;28;20074;-67
2023/03/02 10:25:16;;;;;;;32.17;17.80;;;;;;;;;;5077983;28;20066;-67
2023/03/02 10:27:43;;;;;;;30.98;19.95;;;;;;;;;;5080320;28;20118;-69
2023/03/02 10:30:17;;;;;;;28.33;18.40;;;;;;;;;;5076416;28;20024;-67
2023/03/02 10:32:50;;;;;;;27.98;18.38;;;;;;;;;;5074263;28;20040;-68
2023/03/02 10:35:19;;;;;;;31.55;19.05;;;;;;;;;;5078497;28;20411;-68
2023/03/02 10:37:46;;;;;;;26.70;17.67;;;;;;;;;;5066392;28;20032;-69
2023/03/02 10:40:32;;;;;;;31.92;18.52;;;;;;;;;;5072509;28;20664;-68
2023/03/02 10:42:59;;;;;;;28.67;17.85;;;;;;;;;;5073062;28;20044;-68
2023/03/02 10:45:24;;;;;;;28.30;16.73;;;;;;;;;;4187575;28;10000948;-68
2023/03/02 10:48:03;;;;;;;29.48;17.73;;;;;;;;;;5041011;28;20136;-68
2023/03/02 10:50:29;;;;;;;26.50;16.88;;;;;;;;;;5040535;28;20032;-67
2023/03/02 10:52:55;;;;;;;29.55;17.20;;;;;;;;;;5034594;28;20063;-68
2023/03/02 10:55:21;;;;;;;26.40;16.60;;;;;;;;;;5036009;28;20036;-67
2023/03/02 10:57:59;;;;;;;28.13;17.52;;;;;;;;;;5043819;28;20037;-67
2023/03/02 11:00:28;;;;;;;29.05;16.58;;;;;;;;;;5041575;28;20040;-66
2023/03/02 11:02:55;;;;;;;23.88;16.25;;;;;;;;;;5040920;28;20041;-66
2023/03/02 11:05:36;;;;;;;28.50;17.88;;;;;;;;;;5042813;28;20037;-68
2023/03/02 11:08:15;;;;;;;28.13;17.02;;;;;;;;;;5031926;28;20032;-69
2023/03/02 11:10:52;;;;;;;25.20;16.63;;;;;;;;;;5039516;28;20048;-69
2023/03/02 11:13:34;;;;;;;32.75;17.92;;;;;;;;;;5008192;28;20039;-69
2023/03/02 11:16:02;;;;;;;28.23;17.05;;;;;;;;;;5043050;28;20561;-68
2023/03/02 11:18:33;;;;;;;24.15;15.70;;;;;;;;;;5038870;28;20043;-67
2023/03/02 11:21:02;;;;;;;31.58;17.60;;;;;;;;;;5041800;28;20512;-66
2023/03/02 11:23:31;;;;;;;;;;;;;;;;;;5042967;28;20045;-68
2023/03/02 11:26:14;;;;;;;26.17;16.67;;;;;;;;;;5041754;28;19916;-67
2023/03/02 11:28:46;;;;;;;29.80;16.40;;;;;;;;;;5045477;28;20060;-67
2023/03/02 11:31:18;;;;;;;25.45;17.27;;;;;;;;;;5045383;28;20033;-68
2023/03/02 11:34:06;;;;;;;26.73;16.65;;;;;;;;;;5027116;28;20040;-68
2023/03/02 11:36:43;;;;;;;26.20;15.63;;;;;;;;;;5043351;28;20037;-67
2023/03/02 11:39:16;;;;;;;25.88;15.70;;;;;;;;;;5045336;28;20037;-68
2023/03/02 11:41:42;;;;;;;26.40;16.38;;;;;;;;;;5044809;28;20488;-68
2023/03/02 11:44:15;;;;;;;25.10;14.98;;;;;;;;;;5045108;28;20063;-67
2023/03/02 11:46:47;;;;;;;25.50;15.93;;;;;;;;;;5028018;28;20082;-67
2023/03/02 11:49:20;;;;;;;25.50;15.38;;;;;;;;;;5046907;28;20057;-70
2023/03/02 11:51:54;;;;;;;23.92;16.00;;;;;;;;;;5045199;28;20112;-68
2023/03/02 11:54:57;;;;;;;29.33;17.75;;;;;;;;;;5030014;28;20040;-68
2023/03/02 11:57:29;;;;;;;24.38;17.00;;;;;;;;;;5048716;28;20643;-68
2023/03/02 11:59:57;;;;;;;25.52;17.38;;;;;;;;;;5047348;28;20032;-67
2023/03/02 12:02:24;;;;;;;26.85;17.65;;;;;;;;;;5049224;28;20037;-67
2023/03/02 12:05:04;;;;;;;25.58;16.98;;;;;;;;;;5043909;28;20095;-70
2023/03/02 12:07:30;;;;;;;29.40;17.70;;;;;;;;;;5043670;28;20032;-70
2023/03/02 12:10:05;;;;;;;28.58;17.08;;;;;;;;;;5043374;28;20114;-69
2023/03/02 12:12:39;;;;;;;27.42;18.20;;;;;;;;;;5043887;28;20037;-69
2023/03/02 12:15:32;;;;;;;24.02;17.85;;;;;;;;;;5044262;28;20140;-68
2023/03/02 12:17:58;;;;;;;28.67;18.15;;;;;;;;;;5043654;28;22508;-68
2023/03/02 12:20:27;;;;;;;24.65;17.15;;;;;;;;;;5044922;28;20091;-68
2023/03/02 12:22:53;;;;;;;29.63;18.67;;;;;;;;;;5044283;28;20040;-69
2023/03/02 12:25:19;;;;;;;25.02;16.63;;;;;;;;;;5045720;28;20041;-71
2023/03/02 12:27:47;;;;;;;26.00;17.05;;;;;;;;;;5041648;28;20412;-70
2023/03/02 12:30:22;;;;;;;24.70;16.33;;;;;;;;;;5043674;28;20037;-69
2023/03/02 12:33:04;;;;;;;28.38;17.15;;;;;;;;;;5025173;28;20575;-69
2023/03/02 12:35:32;;;;;;;24.75;16.08;;;;;;;;;;5042024;28;20025;-69
2023/03/02 12:38:02;;;;;;;33.00;18.77;;;;;;;;;;5024543;28;20044;-69
2023/03/02 12:41:03;;;;;;;22.63;16.25;;;;;;;;;;5044422;28;20036;-69
2023/03/02 12:43:28;;;;;;;27.35;18.00;;;;;;;;;;5043761;28;20064;-69
2023/03/02 12:46:22;;;;;;;23.52;16.00;;;;;;;;;;5043672;28;20064;-69
2023/03/02 12:49:03;;;;;;;23.33;15.73;;;;;;;;;;5040497;28;20096;-68
2023/03/02 12:51:42;;;;;;;25.98;16.77;;;;;;;;;;5042033;28;20625;-69
2023/03/02 12:54:16;;;;;;;24.20;15.57;;;;;;;;;;5041340;28;20021;-69
2023/03/02 12:56:42;;;;;;;24.15;15.88;;;;;;;;;;5040475;28;20048;-69
2023/03/02 12:59:19;;;;;;;25.88;17.55;;;;;;;;;;5040454;28;20033;-69
2023/03/02 13:01:45;;;;;;;26.75;16.67;;;;;;;;;;5041172;28;20045;-70
2023/03/02 13:04:25;;;;;;;28.10;17.17;;;;;;;;;;5042085;28;20044;-68
2023/03/02 13:06:52;;;;;;;22.17;16.13;;;;;;;;;;5039828;28;20033;-68
2023/03/02 13:09:19;;;;;;;28.77;17.35;;;;;;;;;;5042660;28;20687;-69
2023/03/02 13:11:47;;;;;;;25.15;17.05;;;;;;;;;;5042590;28;20114;-69
2023/03/02 13:14:19;;;;;;;26.88;16.92;;;;;;;;;;5033171;28;20104;-69
2023/03/02 13:16:56;;;;;;;30.33;18.27;;;;;;;;;;5034027;28;20098;-67
2023/03/02 13:19:23;;;;;;;29.50;19.15;;;;;;;;;;5036563;28;20033;-69
2023/03/02 13:21:49;;;;;;;23.25;16.13;;;;;;;;;;5021494;28;20029;-70
2023/03/02 13:24:45;;;;;;;28.10;17.63;;;;;;;;;;5035540;28;20044;-69
2023/03/02 13:27:29;;;;;;;24.95;16.33;;;;;;;;;;5036320;28;20037;-69
2023/03/02 13:29:55;;;;;;;23.08;15.95;;;;;;;;;;5035531;28;20456;-68
2023/03/02 13:32:27;;;;;;;29.67;17.98;;;;;;;;;;5040389;28;20127;-68
2023/03/02 13:34:56;;;;;;;25.73;17.45;;;;;;;;;;5041455;28;20073;-68
2023/03/02 13:37:37;;;;;;;25.88;17.13;;;;;;;;;;5041943;28;20033;-68
2023/03/02 13:40:24;;;;;;;22.48;15.13;;;;;;;;;;5038977;28;20417;-68
2023/03/02 13:42:50;;;;;;;24.17;17.00;;;;;;;;;;5041110;28;20038;-68
2023/03/02 13:45:32;;;;;;;29.70;18.05;;;;;;;;;;5041504;28;20029;-69
2023/03/02 13:48:10;;;;;;;25.52;17.10;;;;;;;;;;5042102;28;20571;-69
2023/03/02 13:50:36;;;;;;;23.63;16.10;;;;;;;;;;5050866;28;20044;-68
2023/03/02 13:53:05;;;;;;;24.48;16.92;;;;;;;;;;5041364;28;20025;-67
2023/03/02 13:55:32;;;;;;;26.23;16.80;;;;;;;;;;5040794;28;20571;-69
2023/03/02 13:57:59;;;;;;;25.52;15.95;;;;;;;;;;5041508;28;20033;-68
2023/03/02 14:00:30;;;;;;;26.73;16.58;;;;;;;;;;5038810;28;20524;-68
2023/03/02 14:02:56;;;;;;;23.58;16.50;;;;;;;;;;5040902;28;20659;-69
2023/03/02 14:05:25;;;;;;;25.35;15.90;;;;;;;;;;5040912;28;20062;-68
2023/03/02 14:07:51;;;;;;;;;;;;;;;;;;5039519;28;20045;-68
2023/03/02 14:10:18;;;;;;;32.53;16.17;;;;;;;;;;5042178;28;19920;-68
2023/03/02 14:12:55;;;;;;;26.83;15.43;;;;;;;;;;5040133;28;20119;-69
2023/03/02 14:15:20;;;;;;;25.42;15.63;;;;;;;;;;5041167;28;20044;-68
2023/03/02 14:17:48;;;;;;;26.33;15.90;;;;;;;;;;5039857;28;20106;-68
2023/03/02 14:20:19;;;;;;;24.33;16.27;;;;;;;;;;5039679;28;20515;-69
2023/03/02 14:22:46;;;;;;;26.58;15.77;;;;;;;;;;5031621;28;20768;-68
2023/03/02 14:25:13;;;;;;;27.45;16.75;;;;;;;;;;5040484;28;20035;-68
2023/03/02 14:27:40;;;;;;;22.77;15.45;;;;;;;;;;5038609;28;20407;-68
2023/03/02 14:30:26;;;;;;;23.55;14.52;;;;;;;;;;5039339;28;20094;-69
2023/03/02 14:32:51;;;;;;;23.48;14.98;;;;;;;;;;5043834;28;20252;-70